createdAt,value
2019-03-18T00:00:49.471Z,1000.35
2019-03-18T00:01:49.483Z,1000.33
2019-03-18T00:02:49.460Z,1000.36
2019-03-18T00:03:49.457Z,1000.29
2019-03-18T00:04:49.424Z,1000.37
2019-03-18T00:05:49.414Z,1000.38
2019-03-18T00:06:49.396Z,1000.39
2019-03-18T00:07:49.414Z,1000.33
2019-03-18T00:08:49.398Z,1000.34
2019-03-18T00:09:49.365Z,1000.39
2019-03-18T00:10:49.354Z,1000.33
2019-03-18T00:11:49.342Z,1000.41
2019-03-18T00:12:51.972Z,1000.37
2019-03-18T00:13:49.346Z,1000.40
2019-03-18T00:15:00.420Z,1000.37
2019-03-18T00:15:50.299Z,1000.37
2019-03-18T00:16:49.288Z,1000.40
2019-03-18T00:17:49.282Z,1000.42
2019-03-18T00:18:49.283Z,1000.45
2019-03-18T00:19:49.270Z,1000.43
2019-03-18T00:20:49.238Z,1000.46
2019-03-18T00:21:49.232Z,1000.46
2019-03-18T00:22:49.236Z,1000.49
2019-03-18T00:23:49.227Z,1000.46
2019-03-18T00:24:49.196Z,1000.44
2019-03-18T00:25:49.190Z,1000.38
2019-03-18T00:26:49.207Z,1000.43
2019-03-18T00:27:49.170Z,1000.46
2019-03-18T00:28:49.176Z,1000.42
2019-03-18T00:29:49.153Z,1000.40
2019-03-18T00:30:49.183Z,1000.46
2019-03-18T00:31:49.129Z,1000.38
2019-03-18T00:32:49.112Z,1000.36
2019-03-18T00:33:49.115Z,1000.35
2019-03-18T00:34:49.089Z,1000.40
2019-03-18T00:35:49.106Z,1000.40
2019-03-18T00:36:49.066Z,1000.43
2019-03-18T00:37:49.071Z,1000.46
2019-03-18T00:38:49.081Z,1000.51
2019-03-18T00:39:49.037Z,1000.48
2019-03-18T00:40:49.023Z,1000.53
2019-03-18T00:41:49.008Z,1000.52
2019-03-18T00:42:49.030Z,1000.46
2019-03-18T00:43:49.009Z,1000.41
2019-03-18T00:44:48.979Z,1000.45
2019-03-18T00:45:48.987Z,1000.49
2019-03-18T00:46:48.972Z,1000.50
2019-03-18T00:47:48.945Z,1000.56
2019-03-18T00:48:48.958Z,1000.53
2019-03-18T00:49:48.933Z,1000.55
2019-03-18T00:50:48.917Z,1000.52
2019-03-18T00:51:48.902Z,1000.59
2019-03-18T00:52:48.928Z,1000.59
2019-03-18T00:53:48.915Z,1000.57
2019-03-18T00:54:48.864Z,1000.57
2019-03-18T00:55:51.615Z,1000.58
2019-03-18T00:56:48.863Z,1000.61
2019-03-18T00:57:48.861Z,1000.64
2019-03-18T00:58:48.842Z,1000.62
2019-03-18T00:59:48.995Z,1000.68
2019-03-18T01:00:48.887Z,1000.74
2019-03-18T01:01:48.792Z,1000.73
2019-03-18T01:02:49.621Z,1000.80
2019-03-18T01:03:48.783Z,1000.74
2019-03-18T01:04:48.775Z,1000.81
2019-03-18T01:05:48.753Z,1000.77
2019-03-18T01:06:48.733Z,1000.81
2019-03-18T01:07:48.731Z,1000.80
2019-03-18T01:08:48.731Z,1000.86
2019-03-18T01:09:48.720Z,1000.82
2019-03-18T01:10:48.714Z,1000.85
2019-03-18T01:11:48.673Z,1000.86
2019-03-18T01:12:48.679Z,1000.76
2019-03-18T01:13:48.664Z,1000.80
2019-03-18T01:14:48.671Z,1000.82
2019-03-18T01:15:48.665Z,1000.84
2019-03-18T01:16:48.703Z,1000.84
2019-03-18T01:17:48.622Z,1000.87
2019-03-18T01:18:48.604Z,1000.80
2019-03-18T01:19:48.615Z,1000.79
2019-03-18T01:20:48.615Z,1000.84
2019-03-18T01:21:48.574Z,1000.82
2019-03-18T01:22:48.570Z,1000.83
2019-03-18T01:23:48.571Z,1000.78
2019-03-18T01:24:48.564Z,1000.85
2019-03-18T01:25:48.528Z,1000.85
2019-03-18T01:26:48.529Z,1000.88
2019-03-18T01:27:48.536Z,1000.85
2019-03-18T01:28:48.494Z,1000.85
2019-03-18T01:29:48.510Z,1000.92
2019-03-18T01:30:48.482Z,1000.93
2019-03-18T01:31:48.466Z,1000.85
2019-03-18T01:32:48.449Z,1000.81
2019-03-18T01:33:48.451Z,1000.85
2019-03-18T01:34:48.451Z,1000.79
2019-03-18T01:35:48.418Z,1000.83
2019-03-18T01:36:48.416Z,1000.84
2019-03-18T01:37:48.401Z,1000.80
2019-03-18T01:38:48.380Z,1000.77
2019-03-18T01:39:48.395Z,1000.85
2019-03-18T01:40:48.361Z,1000.86
2019-03-18T01:41:48.369Z,1000.87
2019-03-18T01:42:48.378Z,1000.86
2019-03-18T01:43:48.330Z,1000.86
2019-03-18T01:44:48.351Z,1000.81
2019-03-18T01:45:48.338Z,1000.78
2019-03-18T01:46:48.294Z,1000.64
2019-03-18T01:47:48.292Z,1000.71
2019-03-18T01:48:48.277Z,1000.73
2019-03-18T01:49:48.280Z,1000.75
2019-03-18T01:50:48.258Z,1000.61
2019-03-18T01:51:48.245Z,1000.63
2019-03-18T01:52:48.236Z,1000.57
2019-03-18T01:53:48.230Z,1000.54
2019-03-18T01:54:48.242Z,1000.57
2019-03-18T01:55:48.197Z,1000.59
2019-03-18T01:56:48.194Z,1000.56
2019-03-18T01:57:48.178Z,1000.59
2019-03-18T01:58:48.168Z,1000.63
2019-03-18T01:59:48.462Z,1000.60
2019-03-18T02:00:48.148Z,1000.64
2019-03-18T02:01:48.128Z,1000.64
2019-03-18T02:02:48.154Z,1000.67
2019-03-18T02:03:48.111Z,1000.59
2019-03-18T02:04:48.115Z,1000.59
2019-03-18T02:05:48.086Z,1000.62
2019-03-18T02:06:48.072Z,1000.65
2019-03-18T02:07:48.067Z,1000.72
2019-03-18T02:08:48.074Z,1000.67
2019-03-18T02:09:48.109Z,1000.69
2019-03-18T02:10:48.042Z,1000.67
2019-03-18T02:11:48.020Z,1000.70
2019-03-18T02:12:48.016Z,1000.70
2019-03-18T02:13:48.013Z,1000.72
2019-03-18T02:14:48.008Z,1000.74
2019-03-18T02:15:53.286Z,1000.77
2019-03-18T02:16:48.975Z,1000.81
2019-03-18T02:17:47.970Z,1000.76
2019-03-18T02:18:47.940Z,1000.86
2019-03-18T02:19:47.987Z,1000.78
2019-03-18T02:20:47.923Z,1000.78
2019-03-18T02:21:47.915Z,1000.73
2019-03-18T02:22:47.919Z,1000.76
2019-03-18T02:23:47.892Z,1000.77
2019-03-18T02:24:47.885Z,1000.74
2019-03-18T02:25:47.894Z,1000.81
2019-03-18T02:26:47.860Z,1000.73
2019-03-18T02:27:47.843Z,1000.75
2019-03-18T02:28:47.843Z,1000.74
2019-03-18T02:29:47.834Z,1000.70
2019-03-18T02:30:47.858Z,1000.73
2019-03-18T02:31:47.798Z,1000.68
2019-03-18T02:32:47.924Z,1000.76
2019-03-18T02:33:47.790Z,1000.77
2019-03-18T02:34:47.779Z,1000.72
2019-03-18T02:35:47.781Z,1000.73
2019-03-18T02:36:47.762Z,1000.73
2019-03-18T02:37:47.745Z,1000.70
2019-03-18T02:38:47.719Z,1000.67
2019-03-18T02:39:47.738Z,1000.67
2019-03-18T02:40:47.730Z,1000.72
2019-03-18T02:41:47.695Z,1000.69
2019-03-18T02:42:47.695Z,1000.67
2019-03-18T02:43:47.670Z,1000.73
2019-03-18T02:44:47.687Z,1000.75
2019-03-18T02:45:47.680Z,1000.75
2019-03-18T02:46:47.635Z,1000.74
2019-03-18T02:47:47.636Z,1000.77
2019-03-18T02:48:47.619Z,1000.76
2019-03-18T02:49:47.597Z,1000.76
2019-03-18T02:50:47.619Z,1000.79
2019-03-18T02:51:47.577Z,1000.81
2019-03-18T02:52:47.597Z,1000.82
2019-03-18T02:53:47.567Z,1000.79
2019-03-18T02:54:47.542Z,1000.80
2019-03-18T02:55:47.561Z,1000.77
2019-03-18T02:56:47.628Z,1000.84
2019-03-18T02:57:47.510Z,1000.77
2019-03-18T02:58:47.504Z,1000.81
2019-03-18T02:59:47.505Z,1000.76
2019-03-18T03:00:47.497Z,1000.79
2019-03-18T03:01:47.471Z,1000.78
2019-03-18T03:02:47.494Z,1000.80
2019-03-18T03:03:47.453Z,1000.75
2019-03-18T03:04:47.441Z,1000.79
2019-03-18T03:05:47.484Z,1000.82
2019-03-18T03:06:47.421Z,1000.85
2019-03-18T03:07:47.399Z,1000.78
2019-03-18T03:08:47.402Z,1000.80
2019-03-18T03:09:47.377Z,1000.81
2019-03-18T03:10:47.382Z,1000.83
2019-03-18T03:11:47.359Z,1000.79
2019-03-18T03:12:47.339Z,1000.81
2019-03-18T03:13:47.337Z,1000.76
2019-03-18T03:14:47.323Z,1000.79
2019-03-18T03:15:47.336Z,1000.77
2019-03-18T03:16:47.330Z,1000.84
2019-03-18T03:17:47.287Z,1000.83
2019-03-18T03:18:47.293Z,1000.89
2019-03-18T03:19:47.270Z,1000.88
2019-03-18T03:20:47.279Z,1000.85
2019-03-18T03:21:47.288Z,1000.83
2019-03-18T03:22:47.273Z,1000.92
2019-03-18T03:23:47.223Z,1000.87
2019-03-18T03:24:47.219Z,1000.81
2019-03-18T03:25:47.216Z,1000.84
2019-03-18T03:26:47.198Z,1000.84
2019-03-18T03:27:47.215Z,1000.84
2019-03-18T03:28:47.171Z,1000.84
2019-03-18T03:29:47.160Z,1000.86
2019-03-18T03:30:47.214Z,1000.88
2019-03-18T03:31:47.137Z,1000.89
2019-03-18T03:32:47.130Z,1000.94
2019-03-18T03:33:47.140Z,1000.94
2019-03-18T03:34:47.105Z,1000.97
2019-03-18T03:35:47.131Z,1000.98
2019-03-18T03:36:47.099Z,1001.04
2019-03-18T03:37:47.098Z,1001.03
2019-03-18T03:38:47.068Z,1001.01
2019-03-18T03:39:47.051Z,1001.08
2019-03-18T03:40:47.072Z,1000.99
2019-03-18T03:41:47.024Z,1000.96
2019-03-18T03:42:47.024Z,1000.99
2019-03-18T03:43:47.014Z,1000.93
2019-03-18T03:44:47.013Z,1000.95
2019-03-18T03:45:47.007Z,1000.94
2019-03-18T03:46:46.973Z,1000.94
2019-03-18T03:47:46.999Z,1000.99
2019-03-18T03:48:47.042Z,1001.02
2019-03-18T03:49:46.949Z,1000.99
2019-03-18T03:50:46.959Z,1001.06
2019-03-18T03:51:46.994Z,1001.10
2019-03-18T03:52:46.906Z,1001.02
2019-03-18T03:53:46.895Z,1001.11
2019-03-18T03:54:46.880Z,1001.10
2019-03-18T03:55:46.918Z,1001.02
2019-03-18T03:56:46.897Z,1001.00
2019-03-18T03:57:46.851Z,1000.98
2019-03-18T03:58:46.834Z,1001.04
2019-03-18T03:59:46.831Z,1000.96
2019-03-18T04:00:46.851Z,1000.92
2019-03-18T04:01:46.810Z,1000.93
2019-03-18T04:02:46.796Z,1000.91
2019-03-18T04:03:46.812Z,1000.96
2019-03-18T04:04:46.770Z,1000.95
2019-03-18T04:05:46.771Z,1000.97
2019-03-18T04:06:46.778Z,1000.93
2019-03-18T04:07:46.744Z,1001.01
2019-03-18T04:08:46.733Z,1000.97
2019-03-18T04:09:46.714Z,1000.95
2019-03-18T04:10:46.705Z,1000.95
2019-03-18T04:11:46.723Z,1000.99
2019-03-18T04:12:46.711Z,1001.00
2019-03-18T04:13:46.677Z,1001.03
2019-03-18T04:14:46.707Z,1001.01
2019-03-18T04:15:46.655Z,1001.05
2019-03-18T04:17:00.732Z,1001.05
2019-03-18T04:17:47.656Z,1001.11
2019-03-18T04:18:46.634Z,1001.10
2019-03-18T04:19:46.605Z,1001.12
2019-03-18T04:20:46.622Z,1001.12
2019-03-18T04:21:50.333Z,1001.19
2019-03-18T04:22:46.583Z,1001.20
2019-03-18T04:23:46.567Z,1001.21
2019-03-18T04:24:46.581Z,1001.27
2019-03-18T04:25:46.546Z,1001.27
2019-03-18T04:26:46.549Z,1001.30
2019-03-18T04:27:46.515Z,1001.30
2019-03-18T04:28:46.530Z,1001.28
2019-03-18T04:29:46.496Z,1001.24
2019-03-18T04:30:46.485Z,1001.25
2019-03-18T04:31:46.491Z,1001.34
2019-03-18T04:32:46.489Z,1001.35
2019-03-18T04:33:46.457Z,1001.29
2019-03-18T04:34:46.441Z,1001.33
2019-03-18T04:35:46.435Z,1001.37
2019-03-18T04:36:46.466Z,1001.33
2019-03-18T04:37:46.404Z,1001.43
2019-03-18T04:38:46.387Z,1001.45
2019-03-18T04:39:46.650Z,1001.44
2019-03-18T04:40:46.376Z,1001.49
2019-03-18T04:41:46.376Z,1001.52
2019-03-18T04:42:46.347Z,1001.52
2019-03-18T04:43:46.332Z,1001.50
2019-03-18T04:44:46.330Z,1001.53
2019-03-18T04:45:46.313Z,1001.44
2019-03-18T04:46:46.317Z,1001.46
2019-03-18T04:47:46.323Z,1001.41
2019-03-18T04:48:46.280Z,1001.41
2019-03-18T04:49:46.270Z,1001.43
2019-03-18T04:50:46.265Z,1001.36
2019-03-18T04:51:46.266Z,1001.50
2019-03-18T04:52:46.252Z,1001.38
2019-03-18T04:53:46.231Z,1001.44
2019-03-18T04:54:46.226Z,1001.58
2019-03-18T04:55:46.207Z,1001.56
2019-03-18T04:56:46.240Z,1001.46
2019-03-18T04:57:46.187Z,1001.53
2019-03-18T04:58:46.187Z,1001.46
2019-03-18T04:59:46.157Z,1001.48
2019-03-18T05:00:46.152Z,1001.48
2019-03-18T05:01:46.156Z,1001.50
2019-03-18T05:02:46.126Z,1001.41
2019-03-18T05:03:46.124Z,1001.52
2019-03-18T05:04:46.121Z,1001.45
2019-03-18T05:05:46.095Z,1001.55
2019-03-18T05:06:46.142Z,1001.60
2019-03-18T05:07:46.087Z,1001.59
2019-03-18T05:08:46.064Z,1001.49
2019-03-18T05:09:46.060Z,1001.57
2019-03-18T05:10:46.036Z,1001.61
2019-03-18T05:11:46.057Z,1001.66
2019-03-18T05:12:46.018Z,1001.64
2019-03-18T05:13:46.130Z,1001.62
2019-03-18T05:14:46.007Z,1001.63
2019-03-18T05:15:45.989Z,1001.51
2019-03-18T05:16:45.974Z,1001.59
2019-03-18T05:17:46.014Z,1001.67
2019-03-18T05:18:45.949Z,1001.61
2019-03-18T05:19:45.935Z,1001.59
2019-03-18T05:20:45.937Z,1001.62
2019-03-18T05:21:45.916Z,1001.59
2019-03-18T05:22:45.921Z,1001.65
2019-03-18T05:23:45.894Z,1001.63
2019-03-18T05:24:45.885Z,1001.63
2019-03-18T05:25:45.876Z,1001.60
2019-03-18T05:26:45.905Z,1001.74
2019-03-18T05:27:45.881Z,1001.70
2019-03-18T05:28:45.843Z,1001.73
2019-03-18T05:29:45.832Z,1001.71
2019-03-18T05:30:45.815Z,1001.78
2019-03-18T05:31:45.810Z,1001.86
2019-03-18T05:32:45.821Z,1001.79
2019-03-18T05:33:45.796Z,1001.74
2019-03-18T05:34:45.788Z,1001.78
2019-03-18T05:35:45.779Z,1001.83
2019-03-18T05:36:45.753Z,1001.92
2019-03-18T05:37:45.759Z,1001.84
2019-03-18T05:38:45.753Z,1001.93
2019-03-18T05:39:45.725Z,1001.96
2019-03-18T05:40:45.717Z,1001.95
2019-03-18T05:41:45.719Z,1001.91
2019-03-18T05:42:45.708Z,1002.01
2019-03-18T05:43:45.677Z,1002.00
2019-03-18T05:44:45.666Z,1002.06
2019-03-18T05:45:45.682Z,1002.09
2019-03-18T05:46:45.645Z,1002.02
2019-03-18T05:47:45.649Z,1002.07
2019-03-18T05:48:45.618Z,1002.03
2019-03-18T05:49:45.613Z,1002.10
2019-03-18T05:50:45.597Z,1002.06
2019-03-18T05:51:45.584Z,1002.05
2019-03-18T05:52:45.605Z,1002.09
2019-03-18T05:53:45.591Z,1002.12
2019-03-18T05:54:45.557Z,1002.12
2019-03-18T05:55:45.544Z,1002.06
2019-03-18T05:56:45.571Z,1002.11
2019-03-18T05:57:45.543Z,1002.16
2019-03-18T05:58:45.502Z,1002.10
2019-03-18T05:59:45.495Z,1002.12
2019-03-18T06:00:45.494Z,1002.12
2019-03-18T06:01:45.473Z,1002.12
2019-03-18T06:02:47.095Z,1002.07
2019-03-18T06:03:45.457Z,1002.06
2019-03-18T06:04:45.455Z,1002.16
2019-03-18T06:05:45.433Z,1002.09
2019-03-18T06:06:45.433Z,1002.04
2019-03-18T06:07:45.451Z,1002.12
2019-03-18T06:08:45.409Z,1002.14
2019-03-18T06:09:45.403Z,1002.11
2019-03-18T06:10:45.419Z,1002.11
2019-03-18T06:11:45.376Z,1002.10
2019-03-18T06:12:45.387Z,1002.18
2019-03-18T06:13:45.349Z,1002.21
2019-03-18T06:14:45.343Z,1002.16
2019-03-18T06:15:45.325Z,1002.21
2019-03-18T06:16:45.307Z,1002.23
2019-03-18T06:17:52.302Z,1002.20
2019-03-18T06:18:46.289Z,1002.20
2019-03-18T06:19:45.278Z,1002.25
2019-03-18T06:20:45.278Z,1002.19
2019-03-18T06:21:45.278Z,1002.31
2019-03-18T06:22:45.282Z,1002.25
2019-03-18T06:23:45.241Z,1002.35
2019-03-18T06:24:45.223Z,1002.30
2019-03-18T06:25:45.253Z,1002.38
2019-03-18T06:26:45.204Z,1002.37
2019-03-18T06:27:45.216Z,1002.44
2019-03-18T06:28:45.392Z,1002.45
2019-03-18T06:29:45.195Z,1002.41
2019-03-18T06:30:45.159Z,1002.40
2019-03-18T06:31:45.160Z,1002.52
2019-03-18T06:32:45.177Z,1002.42
2019-03-18T06:33:45.132Z,1002.50
2019-03-18T06:34:45.172Z,1002.53
2019-03-18T06:35:45.117Z,1002.52
2019-03-18T06:36:45.132Z,1002.46
2019-03-18T06:37:45.190Z,1002.50
2019-03-18T06:38:45.070Z,1002.53
2019-03-18T06:39:45.059Z,1002.65
2019-03-18T06:40:45.061Z,1002.55
2019-03-18T06:41:45.051Z,1002.60
2019-03-18T06:42:45.070Z,1002.56
2019-03-18T06:43:45.010Z,1002.63
2019-03-18T06:44:45.003Z,1002.61
2019-03-18T06:45:45.014Z,1002.62
2019-03-18T06:46:45.036Z,1002.60
2019-03-18T06:47:44.972Z,1002.61
2019-03-18T06:48:44.976Z,1002.59
2019-03-18T06:49:44.948Z,1002.62
2019-03-18T06:50:44.962Z,1002.66
2019-03-18T06:51:44.937Z,1002.73
2019-03-18T06:52:44.926Z,1002.68
2019-03-18T06:53:44.937Z,1002.68
2019-03-18T06:54:44.892Z,1002.66
2019-03-18T06:55:44.884Z,1002.62
2019-03-18T06:56:44.895Z,1002.67
2019-03-18T06:57:44.877Z,1002.67
2019-03-18T06:58:44.914Z,1002.66
2019-03-18T06:59:44.848Z,1002.64
2019-03-18T07:00:44.848Z,1002.60
2019-03-18T07:01:44.866Z,1002.66
2019-03-18T07:02:44.826Z,1002.62
2019-03-18T07:03:44.842Z,1002.70
2019-03-18T07:04:44.907Z,1002.68
2019-03-18T07:05:46.229Z,1002.64
2019-03-18T07:06:44.796Z,1002.74
2019-03-18T07:07:44.869Z,1002.74
2019-03-18T07:08:44.846Z,1002.75
2019-03-18T07:09:44.726Z,1002.85
2019-03-18T07:10:44.720Z,1002.76
2019-03-18T07:11:44.721Z,1002.86
2019-03-18T07:12:44.740Z,1002.76
2019-03-18T07:13:44.731Z,1002.74
2019-03-18T07:14:44.690Z,1002.69
2019-03-18T07:15:44.761Z,1002.83
2019-03-18T07:16:44.672Z,1002.71
2019-03-18T07:17:44.664Z,1002.79
2019-03-18T07:18:44.669Z,1002.82
2019-03-18T07:19:44.621Z,1002.79
2019-03-18T07:20:44.684Z,1002.84
2019-03-18T07:21:44.668Z,1002.75
2019-03-18T07:22:44.609Z,1002.77
2019-03-18T07:23:44.605Z,1002.83
2019-03-18T07:24:44.616Z,1002.83
2019-03-18T07:25:44.565Z,1002.86
2019-03-18T07:26:44.571Z,1002.88
2019-03-18T07:27:44.561Z,1002.89
2019-03-18T07:28:44.563Z,1002.85
2019-03-18T07:29:44.512Z,1002.83
2019-03-18T07:30:44.495Z,1002.89
2019-03-18T07:31:44.499Z,1002.86
2019-03-18T07:32:44.534Z,1002.92
2019-03-18T07:33:44.489Z,1002.95
2019-03-18T07:34:44.476Z,1002.98
2019-03-18T07:35:44.451Z,1002.98
2019-03-18T07:36:44.478Z,1002.92
2019-03-18T07:37:44.442Z,1002.89
2019-03-18T07:38:44.415Z,1002.95
2019-03-18T07:39:44.453Z,1002.96
2019-03-18T07:40:44.393Z,1002.96
2019-03-18T07:41:44.381Z,1002.93
2019-03-18T07:42:44.421Z,1002.91
2019-03-18T07:43:44.371Z,1002.89
2019-03-18T07:44:44.377Z,1002.88
2019-03-18T07:45:44.339Z,1002.90
2019-03-18T07:46:44.316Z,1002.91
2019-03-18T07:47:44.309Z,1002.93
2019-03-18T07:48:44.308Z,1002.95
2019-03-18T07:49:44.336Z,1002.95
2019-03-18T07:50:44.313Z,1002.95
2019-03-18T07:51:44.264Z,1002.88
2019-03-18T07:52:44.255Z,1002.94
2019-03-18T07:53:44.249Z,1002.95
2019-03-18T07:54:44.259Z,1002.97
2019-03-18T07:55:44.227Z,1003.00
2019-03-18T07:56:44.223Z,1002.85
2019-03-18T07:57:44.201Z,1002.86
2019-03-18T07:58:44.189Z,1002.87
2019-03-18T07:59:44.458Z,1002.94
2019-03-18T08:00:44.304Z,1002.98
2019-03-18T08:01:44.153Z,1002.98
2019-03-18T08:02:44.169Z,1002.98
2019-03-18T08:03:44.204Z,1003.00
2019-03-18T08:04:44.445Z,1002.92
2019-03-18T08:05:44.156Z,1002.98
2019-03-18T08:06:44.129Z,1002.97
2019-03-18T08:07:44.089Z,1002.89
2019-03-18T08:08:44.096Z,1002.98
2019-03-18T08:09:44.420Z,1002.89
2019-03-18T08:10:44.058Z,1002.98
2019-03-18T08:11:44.067Z,1002.93
2019-03-18T08:12:44.030Z,1003.00
2019-03-18T08:13:44.023Z,1003.06
2019-03-18T08:14:44.029Z,1003.07
2019-03-18T08:15:44.005Z,1003.11
2019-03-18T08:16:44.013Z,1003.18
2019-03-18T08:17:43.996Z,1003.16
2019-03-18T08:18:43.965Z,1003.13
2019-03-18T08:19:44.071Z,1003.11
2019-03-18T08:20:43.951Z,1003.15
2019-03-18T08:21:43.949Z,1003.17
2019-03-18T08:22:43.925Z,1003.08
2019-03-18T08:23:43.940Z,1003.24
2019-03-18T08:24:43.953Z,1003.15
2019-03-18T08:25:43.959Z,1003.18
2019-03-18T08:26:43.894Z,1003.21
2019-03-18T08:27:43.875Z,1003.15
2019-03-18T08:28:43.867Z,1003.22
2019-03-18T08:29:43.853Z,1003.24
2019-03-18T08:30:43.857Z,1003.30
2019-03-18T08:31:43.830Z,1003.24
2019-03-18T08:32:43.833Z,1003.31
2019-03-18T08:33:43.808Z,1003.31
2019-03-18T08:34:43.815Z,1003.28
2019-03-18T08:35:43.810Z,1003.30
2019-03-18T08:36:43.771Z,1003.30
2019-03-18T08:37:43.762Z,1003.29
2019-03-18T08:38:43.756Z,1003.31
2019-03-18T08:39:43.750Z,1003.33
2019-03-18T08:40:43.742Z,1003.39
2019-03-18T08:41:43.711Z,1003.42
2019-03-18T08:42:43.700Z,1003.41
2019-03-18T08:43:43.709Z,1003.31
2019-03-18T08:44:43.697Z,1003.34
2019-03-18T08:45:43.697Z,1003.38
2019-03-18T08:46:43.654Z,1003.38
2019-03-18T08:47:43.670Z,1003.40
2019-03-18T08:48:55.135Z,1003.48
2019-03-18T08:49:44.678Z,1003.49
2019-03-18T08:50:43.638Z,1003.44
2019-03-18T08:51:43.614Z,1003.47
2019-03-18T08:52:43.593Z,1003.66
2019-03-18T08:53:43.582Z,1003.59
2019-03-18T08:54:43.578Z,1003.58
2019-03-18T08:55:43.578Z,1003.58
2019-03-18T08:56:43.551Z,1003.59
2019-03-18T08:57:43.554Z,1003.53
2019-03-18T08:58:43.534Z,1003.59
2019-03-18T08:59:43.518Z,1003.62
2019-03-18T09:00:43.518Z,1003.59
2019-03-18T09:01:43.492Z,1003.56
2019-03-18T09:02:43.484Z,1003.62
2019-03-18T09:03:43.471Z,1003.57
2019-03-18T09:04:43.461Z,1003.57
2019-03-18T09:05:43.461Z,1003.56
2019-03-18T09:06:43.438Z,1003.55
2019-03-18T09:07:43.435Z,1003.54
2019-03-18T09:08:43.428Z,1003.55
2019-03-18T09:09:43.412Z,1003.55
2019-03-18T09:10:43.453Z,1003.55
2019-03-18T09:11:43.383Z,1003.59
2019-03-18T09:12:43.389Z,1003.47
2019-03-18T09:13:43.368Z,1003.48
2019-03-18T09:14:43.363Z,1003.62
2019-03-18T09:15:43.379Z,1003.53
2019-03-18T09:16:43.334Z,1003.63
2019-03-18T09:17:43.321Z,1003.62
2019-03-18T09:18:43.310Z,1003.55
2019-03-18T09:19:43.316Z,1003.57
2019-03-18T09:20:43.317Z,1003.54
2019-03-18T09:21:43.272Z,1003.51
2019-03-18T09:22:43.262Z,1003.64
2019-03-18T09:23:43.251Z,1003.55
2019-03-18T09:24:43.237Z,1003.60
2019-03-18T09:25:43.244Z,1003.54
2019-03-18T09:26:43.226Z,1003.63
2019-03-18T09:27:43.251Z,1003.56
2019-03-18T09:28:43.256Z,1003.63
2019-03-18T09:29:43.182Z,1003.56
2019-03-18T09:30:43.227Z,1003.56
2019-03-18T09:31:43.160Z,1003.63
2019-03-18T09:32:43.147Z,1003.80
2019-03-18T09:33:43.139Z,1003.74
2019-03-18T09:34:43.122Z,1003.66
2019-03-18T09:35:43.148Z,1003.76
2019-03-18T09:36:43.120Z,1003.71
2019-03-18T09:37:43.093Z,1003.73
2019-03-18T09:38:43.078Z,1003.69
2019-03-18T09:39:43.066Z,1003.74
2019-03-18T09:40:43.078Z,1003.77
2019-03-18T09:41:43.075Z,1003.76
2019-03-18T09:42:43.043Z,1003.79
2019-03-18T09:43:43.021Z,1003.85
2019-03-18T09:44:43.069Z,1003.86
2019-03-18T09:45:43.036Z,1004.02
2019-03-18T09:46:42.987Z,1003.81
2019-03-18T09:47:43.039Z,1003.84
2019-03-18T09:48:42.963Z,1003.89
2019-03-18T09:49:42.954Z,1003.96
2019-03-18T09:50:42.941Z,1003.86
2019-03-18T09:51:42.959Z,1003.86
2019-03-18T09:52:42.944Z,1003.92
2019-03-18T09:53:42.933Z,1003.87
2019-03-18T09:54:42.961Z,1003.83
2019-03-18T09:55:42.883Z,1003.89
2019-03-18T09:56:42.890Z,1003.91
2019-03-18T09:57:42.878Z,1003.91
2019-03-18T09:58:42.945Z,1003.83
2019-03-18T09:59:42.856Z,1003.90
2019-03-18T10:00:42.830Z,1003.95
2019-03-18T10:01:44.544Z,1003.96
2019-03-18T10:02:42.817Z,1003.97
2019-03-18T10:03:42.815Z,1003.93
2019-03-18T10:04:42.791Z,1003.94
2019-03-18T10:05:43.928Z,1003.97
2019-03-18T10:06:42.779Z,1003.99
2019-03-18T10:07:42.756Z,1004.05
2019-03-18T10:08:42.742Z,1003.95
2019-03-18T10:09:42.782Z,1004.08
2019-03-18T10:10:42.750Z,1004.04
2019-03-18T10:11:42.723Z,1003.98
2019-03-18T10:12:42.697Z,1003.98
2019-03-18T10:13:42.718Z,1004.10
2019-03-18T10:14:42.673Z,1004.04
2019-03-18T10:15:42.665Z,1004.04
2019-03-18T10:16:42.670Z,1004.07
2019-03-18T10:17:42.684Z,1004.11
2019-03-18T10:18:42.623Z,1004.08
2019-03-18T10:19:42.621Z,1004.05
2019-03-18T10:20:42.655Z,1004.21
2019-03-18T10:21:42.640Z,1004.13
2019-03-18T10:22:42.579Z,1004.19
2019-03-18T10:23:42.671Z,1004.29
2019-03-18T10:24:42.555Z,1004.35
2019-03-18T10:25:42.551Z,1004.32
2019-03-18T10:26:42.559Z,1004.20
2019-03-18T10:27:42.521Z,1004.23
2019-03-18T10:28:42.512Z,1004.34
2019-03-18T10:29:42.513Z,1004.24
2019-03-18T10:30:42.495Z,1004.19
2019-03-18T10:31:42.508Z,1004.20
2019-03-18T10:32:42.465Z,1004.17
2019-03-18T10:33:44.862Z,1004.22
2019-03-18T10:34:42.460Z,1004.21
2019-03-18T10:35:42.434Z,1004.19
2019-03-18T10:36:42.448Z,1004.23
2019-03-18T10:37:42.414Z,1004.23
2019-03-18T10:38:43.306Z,1004.25
2019-03-18T10:39:42.533Z,1004.37
2019-03-18T10:40:42.400Z,1004.74
2019-03-18T10:41:42.382Z,1004.31
2019-03-18T10:42:42.388Z,1004.39
2019-03-18T10:43:42.385Z,1004.32
2019-03-18T10:44:42.331Z,1004.43
2019-03-18T10:45:42.319Z,1004.44
2019-03-18T10:46:42.372Z,1004.54
2019-03-18T10:47:42.314Z,1004.42
2019-03-18T10:48:42.295Z,1004.45
2019-03-18T10:49:46.296Z,1004.41
2019-03-18T10:50:42.275Z,1004.44
2019-03-18T10:51:42.265Z,1004.39
2019-03-18T10:52:42.261Z,1004.37
2019-03-18T10:53:44.534Z,1004.45
2019-03-18T10:54:42.258Z,1004.41
2019-03-18T10:55:42.206Z,1004.39
2019-03-18T10:56:42.242Z,1004.44
2019-03-18T10:57:42.203Z,1004.42
2019-03-18T10:58:42.180Z,1004.50
2019-03-18T10:59:42.166Z,1004.56
2019-03-18T11:00:42.210Z,1004.43
2019-03-18T11:01:42.170Z,1004.47
2019-03-18T11:02:44.800Z,1004.53
2019-03-18T11:03:42.125Z,1004.53
2019-03-18T11:04:42.105Z,1004.45
2019-03-18T11:05:42.107Z,1004.49
2019-03-18T11:06:42.111Z,1004.43
2019-03-18T11:07:42.074Z,1004.52
2019-03-18T11:08:42.072Z,1004.54
2019-03-18T11:09:42.064Z,1004.58
2019-03-18T11:10:42.045Z,1004.54
2019-03-18T11:11:42.058Z,1004.49
2019-03-18T11:12:42.019Z,1004.66
2019-03-18T11:13:42.016Z,1004.76
2019-03-18T11:14:42.002Z,1004.82
2019-03-18T11:15:41.994Z,1004.73
2019-03-18T11:16:41.978Z,1004.78
2019-03-18T11:17:41.993Z,1004.79
2019-03-18T11:18:41.988Z,1004.86
2019-03-18T11:19:41.946Z,1004.80
2019-03-18T11:20:42.015Z,1004.81
2019-03-18T11:21:41.921Z,1004.91
2019-03-18T11:22:41.988Z,1005.16
2019-03-18T11:23:41.903Z,1004.74
2019-03-18T11:24:41.897Z,1004.76
2019-03-18T11:25:41.882Z,1004.87
2019-03-18T11:26:41.874Z,1004.88
2019-03-18T11:27:41.870Z,1004.79
2019-03-18T11:28:41.989Z,1004.82
2019-03-18T11:29:41.828Z,1005.21
2019-03-18T11:30:41.817Z,1005.09
2019-03-18T11:31:41.814Z,1005.09
2019-03-18T11:32:41.841Z,1005.14
2019-03-18T11:33:41.793Z,1005.08
2019-03-18T11:34:41.798Z,1005.07
2019-03-18T11:35:41.766Z,1005.02
2019-03-18T11:36:41.835Z,1004.99
2019-03-18T11:37:41.858Z,1004.99
2019-03-18T11:38:41.732Z,1005.07
2019-03-18T11:39:41.721Z,1004.85
2019-03-18T11:40:41.730Z,1004.96
2019-03-18T11:41:41.698Z,1004.89
2019-03-18T11:42:41.821Z,1004.89
2019-03-18T11:43:41.678Z,1004.64
2019-03-18T11:44:41.679Z,1004.62
2019-03-18T11:45:41.664Z,1004.74
2019-03-18T11:46:41.644Z,1004.52
2019-03-18T11:47:41.637Z,1004.74
2019-03-18T11:48:41.641Z,1004.57
2019-03-18T11:49:41.641Z,1004.57
2019-03-18T11:50:41.661Z,1004.47
2019-03-18T11:51:41.582Z,1004.48
2019-03-18T11:52:41.571Z,1004.50
2019-03-18T11:53:41.580Z,1004.53
2019-03-18T11:54:41.555Z,1004.53
2019-03-18T11:55:41.545Z,1004.45
2019-03-18T11:56:41.536Z,1004.41
2019-03-18T11:57:41.523Z,1004.46
2019-03-18T11:58:41.538Z,1004.44
2019-03-18T11:59:41.496Z,1004.47
2019-03-18T12:00:41.486Z,1004.42
2019-03-18T12:01:41.477Z,1004.47
2019-03-18T12:02:41.473Z,1004.57
2019-03-18T12:03:41.484Z,1004.58
2019-03-18T12:04:41.440Z,1004.44
2019-03-18T12:05:41.438Z,1004.40